createdAt,value
2023-04-16T00:01:13.202Z,8.34
2023-04-16T00:03:45.578Z,8.35
2023-04-16T00:06:17.730Z,8.33
2023-04-16T00:08:50.498Z,8.31
2023-04-16T00:11:22.489Z,8.27
2023-04-16T00:13:54.627Z,8.24
2023-04-16T00:16:29.188Z,8.25
2023-04-16T00:19:04.224Z,8.24
2023-04-16T00:21:36.262Z,8.20
2023-04-16T00:24:08.631Z,8.19
2023-04-16T00:26:41.218Z,8.20
2023-04-16T00:29:14.302Z,8.17
2023-04-16T00:31:46.449Z,8.15
2023-04-16T00:34:19.334Z,8.14
2023-04-16T00:36:51.606Z,8.13
2023-04-16T00:39:23.870Z,8.08
2023-04-16T00:41:57.884Z,8.04
2023-04-16T00:44:31.482Z,8.00
2023-04-16T00:47:05.008Z,7.98
2023-04-16T00:49:37.969Z,8.01
2023-04-16T00:52:12.300Z,8.01
2023-04-16T00:54:45.003Z,8.00
2023-04-16T00:57:21.107Z,8.02
2023-04-16T00:59:54.433Z,8.03
2023-04-16T01:02:29.877Z,8.06
2023-04-16T01:05:03.384Z,8.07
2023-04-16T01:07:35.955Z,8.05
2023-04-16T01:10:10.776Z,8.06
2023-04-16T01:12:43.261Z,8.07
2023-04-16T01:15:16.282Z,8.07
2023-04-16T01:17:49.910Z,8.07
2023-04-16T01:20:22.561Z,8.04
2023-04-16T01:22:55.214Z,8.01
2023-04-16T01:25:29.160Z,8.01
2023-04-16T01:28:01.679Z,8.01
2023-04-16T01:30:34.178Z,8.02
2023-04-16T01:33:18.200Z,8.01
2023-04-16T01:35:53.386Z,8.00
2023-04-16T01:38:28.230Z,7.99
2023-04-16T01:41:00.873Z,8.00
2023-04-16T01:43:33.107Z,8.00
2023-04-16T01:46:19.937Z,8.02
2023-04-16T01:48:54.914Z,8.07
2023-04-16T01:51:27.751Z,8.08
2023-04-16T01:54:01.474Z,8.09
2023-04-16T01:56:33.471Z,8.07
2023-04-16T01:59:05.797Z,8.05
2023-04-16T02:01:42.861Z,8.02
2023-04-16T02:04:15.850Z,7.96
2023-04-16T02:06:49.198Z,7.94
2023-04-16T02:09:21.586Z,7.95
2023-04-16T02:11:54.532Z,7.97
2023-04-16T02:14:29.286Z,7.99
2023-04-16T02:17:02.392Z,8.03
2023-04-16T02:19:48.577Z,8.04
2023-04-16T02:22:24.317Z,8.01
2023-04-16T02:25:09.766Z,7.99
2023-04-16T02:27:42.235Z,7.98
2023-04-16T02:30:28.012Z,7.95
2023-04-16T02:33:00.610Z,7.94
2023-04-16T02:35:33.699Z,7.94
2023-04-16T02:38:07.376Z,7.91
2023-04-16T02:40:40.323Z,7.90
2023-04-16T02:43:14.741Z,7.91
2023-04-16T02:45:50.879Z,7.94
2023-04-16T02:48:23.235Z,7.97
2023-04-16T02:50:55.914Z,7.98
2023-04-16T02:53:28.900Z,7.98
2023-04-16T02:56:01.350Z,7.99
2023-04-16T02:58:33.796Z,7.98
2023-04-16T03:01:06.529Z,7.97
2023-04-16T03:03:39.002Z,7.99
2023-04-16T03:06:11.844Z,7.99
2023-04-16T03:08:44.366Z,7.97
2023-04-16T03:11:17.026Z,7.93
2023-04-16T03:13:52.013Z,7.91
2023-04-16T03:16:24.280Z,7.88
2023-04-16T03:18:59.093Z,7.84
2023-04-16T03:21:32.691Z,7.83
2023-04-16T03:24:05.238Z,7.81
2023-04-16T03:26:37.743Z,7.80
2023-04-16T03:29:13.021Z,7.79
2023-04-16T03:31:45.861Z,7.81
2023-04-16T03:34:18.330Z,7.85
2023-04-16T03:36:51.197Z,7.87
2023-04-16T03:39:23.598Z,7.87
2023-04-16T03:41:55.931Z,7.83
2023-04-16T03:44:30.442Z,7.82
2023-04-16T03:47:02.956Z,7.82
2023-04-16T03:49:35.081Z,7.81
2023-04-16T03:52:07.739Z,7.79
2023-04-16T03:54:40.133Z,7.76
2023-04-16T03:57:22.497Z,7.74
2023-04-16T03:59:54.892Z,7.75
2023-04-16T04:02:28.453Z,7.77
2023-04-16T04:05:01.224Z,7.76
2023-04-16T04:07:34.149Z,7.75
2023-04-16T04:10:07.024Z,7.75
2023-04-16T04:12:41.652Z,7.78
2023-04-16T04:15:15.653Z,7.79
2023-04-16T04:17:47.984Z,7.83
2023-04-16T04:20:20.454Z,7.87
2023-04-16T04:22:53.397Z,7.89
2023-04-16T04:25:28.800Z,7.92
2023-04-16T04:28:01.110Z,7.93
2023-04-16T04:30:35.922Z,7.96
2023-04-16T04:33:08.747Z,7.97
2023-04-16T04:35:44.417Z,7.98
2023-04-16T04:38:20.018Z,7.96
2023-04-16T04:40:54.800Z,7.97
2023-04-16T04:43:31.294Z,7.99
2023-04-16T04:46:03.561Z,8.00
2023-04-16T04:48:36.579Z,8.02
2023-04-16T04:51:11.020Z,8.07
2023-04-16T04:53:43.291Z,8.14
2023-04-16T04:56:15.558Z,8.21
2023-04-16T04:58:47.763Z,8.28
2023-04-16T05:01:19.915Z,8.33
2023-04-16T05:03:52.874Z,8.40
2023-04-16T05:06:25.760Z,8.48
2023-04-16T05:08:59.046Z,8.52
2023-04-16T05:11:34.524Z,8.55
2023-04-16T05:14:06.801Z,8.58
2023-04-16T05:16:39.887Z,8.61
2023-04-16T05:19:12.287Z,8.63
2023-04-16T05:21:44.627Z,8.65
2023-04-16T05:24:16.819Z,8.68
2023-04-16T05:26:51.666Z,8.70
2023-04-16T05:29:23.971Z,8.74
2023-04-16T05:31:56.262Z,8.75
2023-04-16T05:34:31.248Z,8.76
2023-04-16T05:37:05.912Z,8.77
2023-04-16T05:39:38.363Z,8.77
2023-04-16T05:42:10.787Z,8.81
2023-04-16T05:44:43.064Z,8.84
2023-04-16T05:47:16.053Z,8.90
2023-04-16T05:49:51.360Z,8.92
2023-04-16T05:52:23.543Z,8.95
2023-04-16T05:54:55.821Z,8.99
2023-04-16T05:57:28.467Z,9.03
2023-04-16T06:00:00.711Z,9.04
2023-04-16T06:02:33.698Z,9.04
2023-04-16T06:05:06.711Z,9.05
2023-04-16T06:07:39.197Z,9.04
2023-04-16T06:10:15.037Z,9.03
2023-04-16T06:12:47.132Z,9.00
2023-04-16T06:15:19.373Z,9.01
2023-04-16T06:17:52.838Z,9.05
2023-04-16T06:20:31.402Z,9.10
2023-04-16T06:23:01.902Z,9.14
2023-04-16T06:25:34.216Z,9.15
2023-04-16T06:28:06.548Z,9.14
2023-04-16T06:30:38.952Z,9.10
2023-04-16T06:33:13.820Z,9.07
2023-04-16T06:35:46.180Z,9.05
2023-04-16T06:38:18.529Z,9.03
2023-04-16T06:40:51.099Z,9.05
2023-04-16T06:43:23.904Z,9.10
2023-04-16T06:45:59.005Z,9.17
2023-04-16T06:48:31.620Z,9.20
2023-04-16T06:51:03.805Z,9.22
2023-04-16T06:53:37.802Z,9.25
2023-04-16T06:56:11.398Z,9.28
2023-04-16T06:58:43.488Z,9.26
2023-04-16T07:01:17.944Z,9.29
2023-04-16T07:03:50.550Z,9.35
2023-04-16T07:06:23.494Z,9.40
2023-04-16T07:08:56.047Z,9.46
2023-04-16T07:11:31.395Z,9.51
2023-04-16T07:14:03.617Z,9.55
2023-04-16T07:16:37.971Z,9.58
2023-04-16T07:19:11.671Z,9.55
2023-04-16T07:21:43.922Z,9.57
2023-04-16T07:24:17.305Z,9.56
2023-04-16T07:26:49.200Z,9.53
2023-04-16T07:29:21.282Z,9.55
2023-04-16T07:31:54.265Z,9.58
2023-04-16T07:34:27.228Z,9.57
2023-04-16T07:36:59.343Z,9.60
2023-04-16T07:39:32.919Z,9.66
2023-04-16T07:42:05.264Z,9.65
2023-04-16T07:44:37.851Z,9.63
2023-04-16T07:47:10.202Z,9.57
2023-04-16T07:49:42.634Z,9.59
2023-04-16T07:52:14.962Z,9.66
2023-04-16T07:54:47.390Z,9.70
2023-04-16T07:57:20.574Z,9.77
2023-04-16T07:59:52.732Z,9.83
2023-04-16T08:02:24.891Z,9.86
2023-04-16T08:04:57.882Z,9.88
2023-04-16T08:07:34.465Z,9.88
2023-04-16T08:10:09.656Z,9.87
2023-04-16T08:12:41.926Z,9.90
2023-04-16T08:15:14.503Z,9.92
2023-04-16T08:17:47.138Z,9.94
2023-04-16T08:20:19.903Z,9.96
2023-04-16T08:22:52.439Z,9.99
2023-04-16T08:25:25.032Z,10.05
2023-04-16T08:27:57.954Z,10.13
2023-04-16T08:30:33.391Z,10.16
2023-04-16T08:33:05.504Z,10.23
2023-04-16T08:35:38.134Z,10.34
2023-04-16T08:38:16.822Z,10.45
2023-04-16T08:40:50.856Z,10.58
2023-04-16T08:43:31.412Z,10.70
2023-04-16T08:46:05.065Z,10.78
2023-04-16T08:48:38.437Z,10.90
2023-04-16T08:51:13.362Z,10.98
2023-04-16T08:53:54.738Z,11.07
2023-04-16T08:56:30.046Z,11.14
2023-04-16T08:59:05.741Z,11.18
2023-04-16T09:01:41.806Z,11.20
2023-04-16T09:04:15.422Z,11.25
2023-04-16T09:06:49.776Z,11.29
2023-04-16T09:09:24.150Z,11.36
2023-04-16T09:11:59.765Z,11.44
2023-04-16T09:14:43.384Z,11.49
2023-04-16T09:17:17.303Z,11.49
2023-04-16T09:19:50.079Z,11.45
2023-04-16T09:22:23.373Z,11.44
2023-04-16T09:24:56.243Z,11.42
2023-04-16T09:27:29.706Z,11.49
2023-04-16T09:30:02.336Z,11.57
2023-04-16T09:32:34.610Z,11.61
2023-04-16T09:35:11.377Z,11.56
2023-04-16T09:37:44.252Z,11.48
2023-04-16T09:40:25.701Z,11.49
2023-04-16T09:43:01.907Z,11.53
2023-04-16T09:45:52.166Z,11.55
2023-04-16T09:48:34.919Z,11.63
2023-04-16T09:51:09.578Z,11.71
2023-04-16T09:53:42.280Z,11.79
2023-04-16T09:56:16.675Z,11.87
2023-04-16T09:58:49.579Z,11.89
2023-04-16T10:01:22.359Z,11.88
2023-04-16T10:03:57.226Z,11.95
2023-04-16T10:06:32.056Z,12.00
2023-04-16T10:09:08.548Z,12.05
2023-04-16T10:11:42.557Z,12.05
2023-04-16T10:14:14.785Z,12.02
2023-04-16T10:16:48.021Z,12.02
2023-04-16T10:19:20.914Z,12.00
2023-04-16T10:21:53.898Z,11.98
2023-04-16T10:24:27.492Z,11.99
2023-04-16T10:27:00.552Z,11.97
2023-04-16T10:29:34.082Z,12.03
2023-04-16T10:32:07.379Z,12.12
2023-04-16T10:34:40.619Z,12.15
2023-04-16T10:37:12.715Z,12.18
2023-04-16T10:39:45.104Z,12.22
2023-04-16T10:42:17.401Z,12.28
2023-04-16T10:44:49.854Z,12.33
2023-04-16T10:47:26.331Z,12.36
2023-04-16T10:49:59.387Z,12.38
2023-04-16T10:52:32.456Z,12.45
2023-04-16T10:55:04.672Z,12.55
2023-04-16T10:57:37.178Z,12.63
2023-04-16T11:00:24.804Z,12.72
2023-04-16T11:02:57.506Z,12.84
2023-04-16T11:05:47.960Z,12.89
2023-04-16T11:08:20.236Z,12.84
2023-04-16T11:10:52.649Z,12.85
2023-04-16T11:13:25.413Z,12.83
2023-04-16T11:16:00.758Z,12.85
2023-04-16T11:18:33.096Z,12.88
2023-04-16T11:21:08.907Z,12.88
2023-04-16T11:23:54.873Z,12.79
2023-04-16T11:26:32.334Z,12.69
2023-04-16T11:29:15.896Z,12.70
2023-04-16T11:31:54.382Z,12.70
2023-04-16T11:34:27.572Z,12.70
2023-04-16T11:37:01.906Z,12.78
2023-04-16T11:39:35.528Z,12.85
2023-04-16T11:42:07.809Z,12.88
2023-04-16T11:44:40.142Z,12.92
2023-04-16T11:47:14.124Z,12.98
2023-04-16T11:49:48.572Z,13.06
2023-04-16T11:52:31.090Z,13.14
2023-04-16T11:55:03.879Z,13.26
2023-04-16T11:57:36.275Z,13.39
2023-04-16T12:00:13.985Z,13.52
2023-04-16T12:02:48.027Z,13.70
2023-04-16T12:05:35.123Z,13.99
2023-04-16T12:08:10.999Z,14.37
2023-04-16T12:10:58.250Z,14.73
2023-04-16T12:13:30.758Z,15.12
2023-04-16T12:16:03.175Z,15.25
2023-04-16T12:18:38.133Z,15.21
2023-04-16T12:21:10.410Z,15.10
2023-04-16T12:23:42.779Z,14.98
2023-04-16T12:26:17.175Z,14.92
2023-04-16T12:28:49.466Z,14.87
2023-04-16T12:31:39.558Z,14.85
2023-04-16T12:34:16.709Z,14.83
2023-04-16T12:36:49.809Z,14.94
2023-04-16T12:39:22.752Z,15.06
2023-04-16T12:41:55.908Z,15.06
2023-04-16T12:44:33.166Z,14.94
2023-04-16T12:47:05.854Z,14.94
2023-04-16T12:49:38.558Z,14.95
2023-04-16T12:52:10.636Z,14.91
2023-04-16T12:54:42.959Z,14.83
2023-04-16T12:57:15.213Z,14.74
2023-04-16T12:59:47.852Z,14.72
2023-04-16T13:02:20.604Z,14.65
2023-04-16T13:04:53.279Z,14.62
2023-04-16T13:07:27.638Z,14.68
2023-04-16T13:10:00.817Z,14.79
2023-04-16T13:12:33.001Z,14.93
2023-04-16T13:15:05.708Z,15.01
2023-04-16T13:17:38.232Z,15.09
2023-04-16T13:20:13.126Z,15.25
2023-04-16T13:22:49.956Z,15.46
2023-04-16T13:25:22.122Z,15.57
2023-04-16T13:27:54.303Z,15.52
2023-04-16T13:30:33.702Z,15.46
2023-04-16T13:33:06.173Z,15.50
2023-04-16T13:35:38.161Z,15.52
2023-04-16T13:38:12.862Z,15.58
2023-04-16T13:40:45.684Z,15.63
2023-04-16T13:43:19.112Z,15.67
2023-04-16T13:45:51.165Z,15.62
2023-04-16T13:48:23.507Z,15.56
2023-04-16T13:50:56.198Z,15.51
2023-04-16T13:53:30.860Z,15.45
2023-04-16T13:56:04.245Z,15.32
2023-04-16T13:58:36.304Z,15.24
2023-04-16T14:01:08.395Z,15.16
2023-04-16T14:03:42.214Z,14.99
2023-04-16T14:06:15.144Z,14.87
2023-04-16T14:08:47.300Z,14.83
2023-04-16T14:11:19.812Z,14.72
2023-04-16T14:13:52.048Z,14.59
2023-04-16T14:16:24.127Z,14.53
2023-04-16T14:18:57.113Z,14.52
2023-04-16T14:21:29.820Z,14.51
2023-04-16T14:24:06.291Z,14.46
2023-04-16T14:26:38.494Z,14.44
2023-04-16T14:29:11.006Z,14.42
2023-04-16T14:31:43.114Z,14.40
2023-04-16T14:34:15.331Z,14.39
2023-04-16T14:36:49.311Z,14.35
2023-04-16T14:39:21.676Z,14.24
2023-04-16T14:41:53.549Z,14.14
2023-04-16T14:44:27.606Z,14.14
2023-04-16T14:46:59.501Z,14.13
2023-04-16T14:49:32.371Z,14.14
2023-04-16T14:52:05.843Z,14.12
2023-04-16T14:54:39.373Z,14.09
2023-04-16T14:57:11.331Z,14.04
2023-04-16T14:59:43.675Z,14.02
2023-04-16T15:02:16.310Z,13.96
2023-04-16T15:04:48.831Z,13.92
2023-04-16T15:07:21.385Z,13.95
2023-04-16T15:09:54.132Z,13.98
2023-04-16T15:12:26.948Z,14.00
2023-04-16T15:15:00.064Z,14.04
2023-04-16T15:17:32.189Z,14.11
2023-04-16T15:20:08.267Z,14.21
2023-04-16T15:22:41.227Z,14.27
2023-04-16T15:25:14.634Z,14.26
2023-04-16T15:27:46.584Z,14.23
2023-04-16T15:30:19.108Z,14.24
2023-04-16T15:32:52.063Z,14.18
2023-04-16T15:35:27.036Z,14.08
2023-04-16T15:37:59.145Z,13.92
2023-04-16T15:40:31.410Z,13.78
2023-04-16T15:43:04.268Z,13.65
2023-04-16T15:45:37.610Z,13.53
2023-04-16T15:48:10.036Z,13.43
2023-04-16T15:50:42.205Z,13.39
2023-04-16T15:53:14.256Z,13.33
2023-04-16T15:55:50.550Z,13.28
2023-04-16T15:58:23.212Z,13.24
2023-04-16T16:00:55.767Z,13.19
2023-04-16T16:03:30.145Z,13.11
2023-04-16T16:06:04.149Z,13.05
2023-04-16T16:08:39.580Z,12.99
2023-04-16T16:11:14.196Z,12.95
2023-04-16T16:13:46.355Z,12.93
2023-04-16T16:16:20.306Z,12.89
2023-04-16T16:18:52.328Z,12.82
2023-04-16T16:21:24.821Z,12.76
2023-04-16T16:23:59.233Z,12.71
2023-04-16T16:26:32.665Z,12.66
2023-04-16T16:29:05.034Z,12.63
2023-04-16T16:31:47.397Z,12.60
2023-04-16T16:34:23.177Z,12.56
2023-04-16T16:37:05.831Z,12.53
2023-04-16T16:39:49.467Z,12.49
2023-04-16T16:42:24.311Z,12.43
2023-04-16T16:45:02.889Z,12.40
2023-04-16T16:50:36.135Z,12.27
2023-04-16T16:53:09.409Z,12.20
2023-04-16T16:55:45.161Z,12.14
2023-04-16T16:58:18.929Z,12.09
2023-04-16T17:00:59.097Z,12.03
2023-04-16T17:03:38.794Z,11.97
2023-04-16T17:06:19.897Z,11.92
2023-04-16T17:08:55.200Z,11.89
2023-04-16T17:11:29.697Z,11.87
2023-04-16T17:14:07.708Z,11.85
2023-04-16T17:16:40.932Z,11.80
2023-04-16T17:19:17.604Z,11.73
2023-04-16T17:21:53.917Z,11.65
2023-04-16T17:24:31.938Z,11.57
2023-04-16T17:27:11.014Z,11.49
2023-04-16T17:29:46.258Z,11.40
2023-04-16T17:32:18.811Z,11.33
2023-04-16T17:34:51.852Z,11.26
2023-04-16T17:37:25.051Z,11.19
2023-04-16T17:39:57.649Z,11.13
2023-04-16T17:42:29.736Z,11.07
2023-04-16T17:45:02.304Z,11.01
2023-04-16T17:47:35.414Z,10.95
2023-04-16T17:50:10.198Z,10.87
2023-04-16T17:52:43.114Z,10.79
2023-04-16T17:55:19.023Z,10.73
2023-04-16T17:57:51.405Z,10.66
2023-04-16T18:00:31.585Z,10.58
2023-04-16T18:03:04.372Z,10.50
2023-04-16T18:05:36.869Z,10.43
2023-04-16T18:08:11.460Z,10.35
2023-04-16T18:10:44.094Z,10.28
2023-04-16T18:13:16.706Z,10.20
2023-04-16T18:15:49.117Z,10.12
2023-04-16T18:18:21.862Z,10.05
2023-04-16T18:20:59.143Z,10.00
2023-04-16T18:23:32.438Z,9.94
2023-04-16T18:26:08.317Z,9.91
2023-04-16T18:28:42.452Z,9.85
2023-04-16T18:31:15.220Z,9.80
2023-04-16T18:33:56.521Z,9.76
2023-04-16T18:36:33.871Z,9.70
2023-04-16T18:39:08.393Z,9.64
2023-04-16T18:41:42.449Z,9.60
2023-04-16T18:44:15.119Z,9.56
2023-04-16T18:46:49.813Z,9.51
2023-04-16T18:49:22.160Z,9.48
2023-04-16T18:51:59.145Z,9.44
2023-04-16T18:54:32.528Z,9.40
2023-04-16T18:57:04.937Z,9.36
2023-04-16T18:59:37.937Z,9.32
2023-04-16T19:02:11.412Z,9.28
2023-04-16T19:04:45.702Z,9.24
2023-04-16T19:07:19.642Z,9.20
2023-04-16T19:09:52.891Z,9.17
2023-04-16T19:12:28.390Z,9.13
2023-04-16T19:15:03.041Z,9.09
2023-04-16T19:17:36.827Z,9.04
2023-04-16T19:20:12.787Z,9.00
2023-04-16T19:22:45.165Z,8.96
2023-04-16T19:25:17.277Z,8.92
2023-04-16T19:27:49.545Z,8.90
2023-04-16T19:30:25.077Z,8.87
2023-04-16T19:33:02.053Z,8.86
2023-04-16T19:35:37.144Z,8.84
2023-04-16T19:38:10.962Z,8.84
2023-04-16T19:40:47.120Z,8.82
2023-04-16T19:43:19.523Z,8.80
2023-04-16T19:45:53.782Z,8.76
2023-04-16T19:48:28.918Z,8.72
2023-04-16T19:51:05.818Z,8.69
2023-04-16T19:53:38.507Z,8.65
2023-04-16T19:56:14.078Z,8.62
2023-04-16T19:58:46.469Z,8.59
2023-04-16T20:01:18.729Z,8.57
2023-04-16T20:03:51.429Z,8.55
2023-04-16T20:06:24.357Z,8.54
2023-04-16T20:08:57.965Z,8.52
2023-04-16T20:11:32.780Z,8.49
2023-04-16T20:14:05.787Z,8.45
2023-04-16T20:16:41.282Z,8.41
2023-04-16T20:19:17.205Z,8.37
2023-04-16T20:21:49.380Z,8.34
2023-04-16T20:24:24.303Z,8.31
2023-04-16T20:26:56.616Z,8.28
2023-04-16T20:29:31.848Z,8.25
2023-04-16T20:32:03.911Z,8.24
2023-04-16T20:34:39.034Z,8.22
2023-04-16T20:37:11.250Z,8.21
2023-04-16T20:39:45.215Z,8.20
2023-04-16T20:42:18.067Z,8.19
2023-04-16T20:44:55.850Z,8.17
2023-04-16T20:47:28.910Z,8.16
2023-04-16T20:50:01.839Z,8.15
2023-04-16T20:52:34.493Z,8.13
2023-04-16T20:55:08.162Z,8.14
2023-04-16T20:57:43.314Z,8.10
2023-04-16T21:00:24.114Z,8.07
2023-04-16T21:02:56.361Z,8.04
2023-04-16T21:05:33.584Z,8.00
2023-04-16T21:08:06.147Z,7.97
2023-04-16T21:10:40.724Z,7.94
2023-04-16T21:13:13.061Z,7.91
2023-04-16T21:15:46.688Z,7.89
2023-04-16T21:18:19.478Z,7.86
2023-04-16T21:20:51.709Z,7.84
2023-04-16T21:23:23.894Z,7.84
2023-04-16T21:25:57.994Z,7.82
2023-04-16T21:28:33.318Z,7.79
2023-04-16T21:31:05.815Z,7.78
2023-04-16T21:33:39.094Z,7.75
2023-04-16T21:36:11.998Z,7.74
2023-04-16T21:38:46.379Z,7.72
2023-04-16T21:41:18.680Z,7.69
2023-04-16T21:43:50.738Z,7.68
2023-04-16T21:46:23.175Z,7.65
2023-04-16T21:48:55.280Z,7.64
2023-04-16T21:51:30.061Z,7.63
2023-04-16T21:54:02.082Z,7.63
2023-04-16T21:56:34.754Z,7.64
2023-04-16T21:59:06.881Z,7.65
2023-04-16T22:01:39.226Z,7.68
2023-04-16T22:04:12.661Z,7.71
2023-04-16T22:06:46.395Z,7.73
2023-04-16T22:09:18.472Z,7.74
2023-04-16T22:11:50.537Z,7.75
2023-04-16T22:14:22.595Z,7.74
2023-04-16T22:16:59.740Z,7.73
2023-04-16T22:19:35.016Z,7.70
2023-04-16T22:22:09.846Z,7.67
2023-04-16T22:24:42.003Z,7.64
2023-04-16T22:27:15.639Z,7.59
2023-04-16T22:29:48.032Z,7.55
2023-04-16T22:32:20.549Z,7.51
2023-04-16T22:34:54.916Z,7.48
2023-04-16T22:37:29.551Z,7.45
2023-04-16T22:40:01.649Z,7.43
2023-04-16T22:42:33.893Z,7.40
2023-04-16T22:45:08.972Z,7.38
2023-04-16T22:47:41.832Z,7.38
2023-04-16T22:50:14.207Z,7.38
2023-04-16T22:52:46.308Z,7.37
2023-04-16T22:55:18.250Z,7.36
2023-04-16T22:57:50.371Z,7.33
2023-04-16T23:00:22.743Z,7.33
2023-04-16T23:02:54.853Z,7.38
2023-04-16T23:05:29.708Z,7.36
2023-04-16T23:08:02.329Z,7.33
2023-04-16T23:10:34.320Z,7.31
2023-04-16T23:13:06.560Z,7.28
2023-04-16T23:15:38.778Z,7.24
2023-04-16T23:18:11.000Z,7.21
2023-04-16T23:20:44.810Z,7.21
2023-04-16T23:23:16.903Z,7.25
2023-04-16T23:25:49.035Z,7.31
2023-04-16T23:28:24.014Z,7.35
2023-04-16T23:30:56.120Z,7.37
2023-04-16T23:33:35.734Z,7.43
2023-04-16T23:36:12.836Z,7.49
2023-04-16T23:38:44.918Z,7.55
2023-04-16T23:41:16.972Z,7.59
2023-04-16T23:43:50.581Z,7.61
2023-04-16T23:46:22.702Z,7.62
2023-04-16T23:48:55.494Z,7.66
2023-04-16T23:51:30.732Z,7.72
2023-04-16T23:54:04.217Z,7.77
2023-04-16T23:56:36.426Z,7.77
2023-04-16T23:59:11.294Z,7.84
